sensor_id;sensor_type;location;lat;lon;timestamp;P1;durP1;ratioP1;P2;durP2;ratioP2
51326;SDS011;37412;52.836;6.362;2024-01-15T00:01:30;14.37;;;2.33;;
51326;SDS011;37412;52.836;6.362;2024-01-15T00:04:16;12.57;;;2.10;;
51326;SDS011;37412;52.836;6.362;2024-01-15T00:07:02;12.65;;;2.22;;
51326;SDS011;37412;52.836;6.362;2024-01-15T00:09:48;13.02;;;2.50;;
51326;SDS011;37412;52.836;6.362;2024-01-15T00:12:34;12.77;;;2.25;;
51326;SDS011;37412;52.836;6.362;2024-01-15T00:15:20;12.02;;;2.05;;
51326;SDS011;37412;52.836;6.362;2024-01-15T00:18:06;13.52;;;2.55;;
51326;SDS011;37412;52.836;6.362;2024-01-15T00:20:52;11.83;;;2.30;;
51326;SDS011;37412;52.836;6.362;2024-01-15T00:23:41;10.82;;;2.00;;
51326;SDS011;37412;52.836;6.362;2024-01-15T00:26:32;13.35;;;2.00;;
51326;SDS011;37412;52.836;6.362;2024-01-15T00:29:18;11.80;;;2.15;;
51326;SDS011;37412;52.836;6.362;2024-01-15T00:32:04;14.40;;;2.63;;
51326;SDS011;37412;52.836;6.362;2024-01-15T00:34:50;14.23;;;2.42;;
51326;SDS011;37412;52.836;6.362;2024-01-15T00:37:36;16.08;;;2.25;;
51326;SDS011;37412;52.836;6.362;2024-01-15T00:40:22;12.13;;;2.40;;
51326;SDS011;37412;52.836;6.362;2024-01-15T00:43:10;15.30;;;2.65;;
51326;SDS011;37412;52.836;6.362;2024-01-15T00:45:56;12.53;;;2.47;;
51326;SDS011;37412;52.836;6.362;2024-01-15T00:48:42;12.27;;;2.70;;
51326;SDS011;37412;52.836;6.362;2024-01-15T00:51:28;13.18;;;2.17;;
51326;SDS011;37412;52.836;6.362;2024-01-15T00:54:14;12.77;;;2.30;;
51326;SDS011;37412;52.836;6.362;2024-01-15T00:57:00;12.02;;;2.47;;
51326;SDS011;37412;52.836;6.362;2024-01-15T00:59:47;12.80;;;2.27;;
51326;SDS011;37412;52.836;6.362;2024-01-15T01:02:34;14.85;;;2.75;;
51326;SDS011;37412;52.836;6.362;2024-01-15T01:05:20;12.60;;;2.17;;
51326;SDS011;37412;52.836;6.362;2024-01-15T01:08:06;14.13;;;2.50;;
51326;SDS011;37412;52.836;6.362;2024-01-15T01:10:52;14.27;;;2.40;;
51326;SDS011;37412;52.836;6.362;2024-01-15T01:13:42;14.65;;;2.42;;
51326;SDS011;37412;52.836;6.362;2024-01-15T01:16:28;11.90;;;2.50;;
51326;SDS011;37412;52.836;6.362;2024-01-15T01:19:15;12.82;;;2.10;;
51326;SDS011;37412;52.836;6.362;2024-01-15T01:22:01;12.10;;;2.53;;
51326;SDS011;37412;52.836;6.362;2024-01-15T01:24:48;14.98;;;2.80;;
51326;SDS011;37412;52.836;6.362;2024-01-15T01:27:34;14.20;;;2.92;;
51326;SDS011;37412;52.836;6.362;2024-01-15T01:30:21;14.27;;;2.60;;
51326;SDS011;37412;52.836;6.362;2024-01-15T01:33:07;14.13;;;3.05;;
51326;SDS011;37412;52.836;6.362;2024-01-15T01:35:53;15.10;;;2.70;;
51326;SDS011;37412;52.836;6.362;2024-01-15T01:38:42;10.13;;;1.85;;
51326;SDS011;37412;52.836;6.362;2024-01-15T01:41:28;8.85;;;1.33;;
51326;SDS011;37412;52.836;6.362;2024-01-15T01:44:14;5.78;;;1.05;;
51326;SDS011;37412;52.836;6.362;2024-01-15T01:47:00;8.40;;;1.45;;
51326;SDS011;37412;52.836;6.362;2024-01-15T01:49:47;6.90;;;1.20;;
51326;SDS011;37412;52.836;6.362;2024-01-15T01:52:33;5.53;;;1.00;;
51326;SDS011;37412;52.836;6.362;2024-01-15T01:55:24;6.32;;;1.00;;
51326;SDS011;37412;52.836;6.362;2024-01-15T01:58:13;6.28;;;1.30;;
51326;SDS011;37412;52.836;6.362;2024-01-15T02:00:59;6.28;;;1.10;;
51326;SDS011;37412;52.836;6.362;2024-01-15T02:03:45;7.95;;;1.33;;
51326;SDS011;37412;52.836;6.362;2024-01-15T02:06:31;9.07;;;1.35;;
51326;SDS011;37412;52.836;6.362;2024-01-15T02:09:17;6.38;;;1.20;;
51326;SDS011;37412;52.836;6.362;2024-01-15T02:12:04;7.13;;;1.00;;
51326;SDS011;37412;52.836;6.362;2024-01-15T02:14:50;7.03;;;1.30;;
51326;SDS011;37412;52.836;6.362;2024-01-15T02:17:55;7.05;;;1.33;;
51326;SDS011;37412;52.836;6.362;2024-01-15T02:20:45;6.90;;;1.33;;
51326;SDS011;37412;52.836;6.362;2024-01-15T02:23:31;9.15;;;1.40;;
51326;SDS011;37412;52.836;6.362;2024-01-15T02:26:17;7.35;;;1.40;;
51326;SDS011;37412;52.836;6.362;2024-01-15T02:29:04;7.70;;;1.33;;
51326;SDS011;37412;52.836;6.362;2024-01-15T02:31:52;8.65;;;1.70;;
51326;SDS011;37412;52.836;6.362;2024-01-15T02:34:38;7.47;;;1.20;;
51326;SDS011;37412;52.836;6.362;2024-01-15T02:37:24;6.65;;;1.27;;
51326;SDS011;37412;52.836;6.362;2024-01-15T02:40:10;6.78;;;1.10;;
51326;SDS011;37412;52.836;6.362;2024-01-15T02:42:57;9.63;;;1.48;;
51326;SDS011;37412;52.836;6.362;2024-01-15T02:45:43;7.85;;;1.48;;
51326;SDS011;37412;52.836;6.362;2024-01-15T02:48:29;5.43;;;1.35;;
51326;SDS011;37412;52.836;6.362;2024-01-15T02:51:14;7.00;;;1.38;;
51326;SDS011;37412;52.836;6.362;2024-01-15T02:54:00;6.88;;;1.38;;
51326;SDS011;37412;52.836;6.362;2024-01-15T02:56:46;6.40;;;1.38;;
51326;SDS011;37412;52.836;6.362;2024-01-15T02:59:32;9.50;;;1.67;;
51326;SDS011;37412;52.836;6.362;2024-01-15T03:02:18;6.68;;;1.40;;
51326;SDS011;37412;52.836;6.362;2024-01-15T03:05:05;8.00;;;1.50;;
51326;SDS011;37412;52.836;6.362;2024-01-15T03:07:52;6.63;;;1.30;;
51326;SDS011;37412;52.836;6.362;2024-01-15T03:10:38;9.57;;;1.77;;
51326;SDS011;37412;52.836;6.362;2024-01-15T03:13:24;9.73;;;1.52;;
51326;SDS011;37412;52.836;6.362;2024-01-15T03:16:10;11.30;;;2.38;;
51326;SDS011;37412;52.836;6.362;2024-01-15T03:18:56;11.60;;;1.70;;
51326;SDS011;37412;52.836;6.362;2024-01-15T03:21:42;10.85;;;1.70;;
51326;SDS011;37412;52.836;6.362;2024-01-15T03:24:29;12.32;;;1.92;;
51326;SDS011;37412;52.836;6.362;2024-01-15T03:27:15;10.70;;;1.90;;
51326;SDS011;37412;52.836;6.362;2024-01-15T03:30:01;13.88;;;2.30;;
51326;SDS011;37412;52.836;6.362;2024-01-15T03:32:47;13.13;;;2.42;;
51326;SDS011;37412;52.836;6.362;2024-01-15T03:35:35;17.15;;;2.85;;
51326;SDS011;37412;52.836;6.362;2024-01-15T03:38:22;14.63;;;2.70;;
51326;SDS011;37412;52.836;6.362;2024-01-15T03:41:08;16.75;;;2.47;;
51326;SDS011;37412;52.836;6.362;2024-01-15T03:43:54;16.10;;;3.10;;
51326;SDS011;37412;52.836;6.362;2024-01-15T03:46:40;13.90;;;2.38;;
51326;SDS011;37412;52.836;6.362;2024-01-15T03:49:26;11.43;;;2.30;;
51326;SDS011;37412;52.836;6.362;2024-01-15T03:52:14;12.45;;;2.05;;
51326;SDS011;37412;52.836;6.362;2024-01-15T03:54:59;10.93;;;1.75;;
51326;SDS011;37412;52.836;6.362;2024-01-15T03:57:45;13.73;;;2.40;;
51326;SDS011;37412;52.836;6.362;2024-01-15T04:00:33;14.70;;;2.35;;
51326;SDS011;37412;52.836;6.362;2024-01-15T04:03:20;12.32;;;2.30;;
51326;SDS011;37412;52.836;6.362;2024-01-15T04:06:05;10.50;;;1.83;;
51326;SDS011;37412;52.836;6.362;2024-01-15T04:08:51;10.00;;;1.83;;
51326;SDS011;37412;52.836;6.362;2024-01-15T04:11:37;9.85;;;2.08;;
51326;SDS011;37412;52.836;6.362;2024-01-15T04:14:23;14.23;;;2.13;;
51326;SDS011;37412;52.836;6.362;2024-01-15T04:17:09;12.27;;;2.40;;
51326;SDS011;37412;52.836;6.362;2024-01-15T04:19:55;10.18;;;1.83;;
51326;SDS011;37412;52.836;6.362;2024-01-15T04:22:41;11.10;;;2.03;;
51326;SDS011;37412;52.836;6.362;2024-01-15T04:25:28;10.13;;;1.77;;
51326;SDS011;37412;52.836;6.362;2024-01-15T04:28:17;13.65;;;2.38;;
51326;SDS011;37412;52.836;6.362;2024-01-15T04:31:03;14.25;;;1.92;;
51326;SDS011;37412;52.836;6.362;2024-01-15T04:33:49;15.00;;;2.63;;
51326;SDS011;37412;52.836;6.362;2024-01-15T04:36:41;15.20;;;2.45;;
51326;SDS011;37412;52.836;6.362;2024-01-15T04:39:27;14.93;;;2.40;;
51326;SDS011;37412;52.836;6.362;2024-01-15T04:42:13;13.50;;;2.40;;
51326;SDS011;37412;52.836;6.362;2024-01-15T04:45:00;14.00;;;2.33;;
51326;SDS011;37412;52.836;6.362;2024-01-15T04:47:46;14.18;;;2.50;;
51326;SDS011;37412;52.836;6.362;2024-01-15T04:50:32;15.25;;;2.25;;
51326;SDS011;37412;52.836;6.362;2024-01-15T04:53:18;13.93;;;2.70;;
51326;SDS011;37412;52.836;6.362;2024-01-15T04:56:04;12.30;;;2.10;;
51326;SDS011;37412;52.836;6.362;2024-01-15T04:58:51;11.52;;;2.35;;
51326;SDS011;37412;52.836;6.362;2024-01-15T05:01:41;11.40;;;2.10;;
51326;SDS011;37412;52.836;6.362;2024-01-15T05:04:28;12.37;;;2.37;;
51326;SDS011;37412;52.836;6.362;2024-01-15T05:07:14;12.25;;;2.20;;
51326;SDS011;37412;52.836;6.362;2024-01-15T05:09:59;10.35;;;1.98;;
51326;SDS011;37412;52.836;6.362;2024-01-15T05:12:48;10.13;;;2.05;;
51326;SDS011;37412;52.836;6.362;2024-01-15T05:15:34;11.38;;;2.42;;
51326;SDS011;37412;52.836;6.362;2024-01-15T05:18:20;11.95;;;1.98;;
51326;SDS011;37412;52.836;6.362;2024-01-15T05:21:16;12.07;;;2.28;;
51326;SDS011;37412;52.836;6.362;2024-01-15T05:24:02;12.23;;;1.87;;
51326;SDS011;37412;52.836;6.362;2024-01-15T05:26:52;12.02;;;2.20;;
51326;SDS011;37412;52.836;6.362;2024-01-15T05:29:38;10.48;;;1.88;;
51326;SDS011;37412;52.836;6.362;2024-01-15T05:32:26;11.52;;;2.17;;
51326;SDS011;37412;52.836;6.362;2024-01-15T05:35:12;11.57;;;2.10;;
51326;SDS011;37412;52.836;6.362;2024-01-15T05:37:58;11.90;;;2.00;;
51326;SDS011;37412;52.836;6.362;2024-01-15T05:40:44;9.57;;;1.75;;
51326;SDS011;37412;52.836;6.362;2024-01-15T05:43:30;10.17;;;2.20;;
51326;SDS011;37412;52.836;6.362;2024-01-15T05:46:16;10.90;;;1.70;;
51326;SDS011;37412;52.836;6.362;2024-01-15T05:49:02;15.63;;;2.38;;
51326;SDS011;37412;52.836;6.362;2024-01-15T05:51:48;10.60;;;1.80;;
51326;SDS011;37412;52.836;6.362;2024-01-15T05:54:34;11.20;;;1.98;;
51326;SDS011;37412;52.836;6.362;2024-01-15T05:57:20;10.30;;;1.88;;
51326;SDS011;37412;52.836;6.362;2024-01-15T06:00:06;13.25;;;2.42;;
51326;SDS011;37412;52.836;6.362;2024-01-15T06:02:54;11.85;;;1.83;;
51326;SDS011;37412;52.836;6.362;2024-01-15T06:05:40;11.13;;;1.88;;
51326;SDS011;37412;52.836;6.362;2024-01-15T06:08:27;12.85;;;2.15;;
51326;SDS011;37412;52.836;6.362;2024-01-15T06:11:13;10.48;;;1.83;;
51326;SDS011;37412;52.836;6.362;2024-01-15T06:13:59;10.00;;;2.00;;
51326;SDS011;37412;52.836;6.362;2024-01-15T06:16:52;11.23;;;2.00;;
51326;SDS011;37412;52.836;6.362;2024-01-15T06:19:41;10.90;;;1.80;;
51326;SDS011;37412;52.836;6.362;2024-01-15T06:22:27;9.88;;;1.90;;
51326;SDS011;37412;52.836;6.362;2024-01-15T06:25:13;11.35;;;1.90;;
51326;SDS011;37412;52.836;6.362;2024-01-15T06:27:59;13.07;;;2.35;;
51326;SDS011;37412;52.836;6.362;2024-01-15T06:30:46;10.23;;;2.03;;
51326;SDS011;37412;52.836;6.362;2024-01-15T06:33:32;15.27;;;2.17;;
51326;SDS011;37412;52.836;6.362;2024-01-15T06:36:18;13.48;;;2.30;;
51326;SDS011;37412;52.836;6.362;2024-01-15T06:39:04;12.43;;;2.08;;
51326;SDS011;37412;52.836;6.362;2024-01-15T06:41:50;10.55;;;1.95;;
51326;SDS011;37412;52.836;6.362;2024-01-15T06:44:36;12.10;;;2.58;;
51326;SDS011;37412;52.836;6.362;2024-01-15T06:47:22;13.90;;;2.40;;
51326;SDS011;37412;52.836;6.362;2024-01-15T06:50:08;11.82;;;2.13;;
51326;SDS011;37412;52.836;6.362;2024-01-15T06:52:54;11.52;;;2.55;;
51326;SDS011;37412;52.836;6.362;2024-01-15T06:55:40;11.30;;;2.50;;
51326;SDS011;37412;52.836;6.362;2024-01-15T06:58:26;13.80;;;2.40;;
51326;SDS011;37412;52.836;6.362;2024-01-15T07:01:13;11.57;;;2.30;;
51326;SDS011;37412;52.836;6.362;2024-01-15T07:04:02;13.98;;;2.25;;
51326;SDS011;37412;52.836;6.362;2024-01-15T07:06:48;12.00;;;2.10;;
51326;SDS011;37412;52.836;6.362;2024-01-15T07:09:34;11.48;;;2.53;;
51326;SDS011;37412;52.836;6.362;2024-01-15T07:12:20;23.90;;;6.82;;
51326;SDS011;37412;52.836;6.362;2024-01-15T07:15:06;17.67;;;6.70;;
51326;SDS011;37412;52.836;6.362;2024-01-15T07:17:53;22.85;;;12.27;;
51326;SDS011;37412;52.836;6.362;2024-01-15T07:20:39;16.30;;;6.75;;
51326;SDS011;37412;52.836;6.362;2024-01-15T07:23:25;14.13;;;3.35;;
51326;SDS011;37412;52.836;6.362;2024-01-15T07:26:11;12.65;;;3.25;;
51326;SDS011;37412;52.836;6.362;2024-01-15T07:28:57;12.90;;;3.05;;
51326;SDS011;37412;52.836;6.362;2024-01-15T07:31:49;15.00;;;2.63;;
51326;SDS011;37412;52.836;6.362;2024-01-15T07:34:36;14.00;;;2.47;;
51326;SDS011;37412;52.836;6.362;2024-01-15T07:37:22;17.42;;;4.18;;
51326;SDS011;37412;52.836;6.362;2024-01-15T07:40:08;14.35;;;3.03;;
51326;SDS011;37412;52.836;6.362;2024-01-15T07:42:56;12.30;;;3.10;;
51326;SDS011;37412;52.836;6.362;2024-01-15T07:45:42;19.35;;;8.68;;
51326;SDS011;37412;52.836;6.362;2024-01-15T07:48:27;14.00;;;3.33;;
51326;SDS011;37412;52.836;6.362;2024-01-15T07:51:14;14.25;;;2.60;;
51326;SDS011;37412;52.836;6.362;2024-01-15T07:54:00;11.57;;;2.30;;
51326;SDS011;37412;52.836;6.362;2024-01-15T07:56:59;13.95;;;2.55;;
51326;SDS011;37412;52.836;6.362;2024-01-15T07:59:46;13.02;;;2.50;;
51326;SDS011;37412;52.836;6.362;2024-01-15T08:02:32;15.37;;;2.30;;
51326;SDS011;37412;52.836;6.362;2024-01-15T08:05:18;15.97;;;3.47;;
51326;SDS011;37412;52.836;6.362;2024-01-15T08:08:04;13.02;;;3.53;;
51326;SDS011;37412;52.836;6.362;2024-01-15T08:10:50;14.30;;;3.10;;
51326;SDS011;37412;52.836;6.362;2024-01-15T08:13:36;17.77;;;2.78;;
51326;SDS011;37412;52.836;6.362;2024-01-15T08:16:22;13.00;;;2.28;;
51326;SDS011;37412;52.836;6.362;2024-01-15T08:19:09;14.27;;;2.30;;
51326;SDS011;37412;52.836;6.362;2024-01-15T08:21:56;18.08;;;2.60;;
51326;SDS011;37412;52.836;6.362;2024-01-15T08:24:43;14.80;;;2.97;;
51326;SDS011;37412;52.836;6.362;2024-01-15T08:27:30;13.88;;;2.47;;
51326;SDS011;37412;52.836;6.362;2024-01-15T08:30:16;15.88;;;2.90;;
51326;SDS011;37412;52.836;6.362;2024-01-15T08:33:04;14.23;;;2.60;;
51326;SDS011;37412;52.836;6.362;2024-01-15T08:35:50;12.10;;;2.45;;
51326;SDS011;37412;52.836;6.362;2024-01-15T08:38:36;14.13;;;2.77;;
51326;SDS011;37412;52.836;6.362;2024-01-15T08:41:22;13.93;;;2.53;;
51326;SDS011;37412;52.836;6.362;2024-01-15T08:44:08;12.75;;;2.45;;
51326;SDS011;37412;52.836;6.362;2024-01-15T08:46:54;13.45;;;2.22;;
51326;SDS011;37412;52.836;6.362;2024-01-15T08:49:40;11.83;;;2.90;;
51326;SDS011;37412;52.836;6.362;2024-01-15T08:52:28;13.35;;;2.60;;
51326;SDS011;37412;52.836;6.362;2024-01-15T08:55:15;14.30;;;2.47;;
51326;SDS011;37412;52.836;6.362;2024-01-15T08:58:01;10.07;;;1.95;;
51326;SDS011;37412;52.836;6.362;2024-01-15T09:00:47;12.63;;;2.35;;
51326;SDS011;37412;52.836;6.362;2024-01-15T09:03:32;11.27;;;2.15;;
51326;SDS011;37412;52.836;6.362;2024-01-15T09:06:22;14.45;;;2.85;;
51326;SDS011;37412;52.836;6.362;2024-01-15T09:09:08;15.23;;;2.78;;
51326;SDS011;37412;52.836;6.362;2024-01-15T09:11:54;10.93;;;2.45;;
51326;SDS011;37412;52.836;6.362;2024-01-15T09:14:40;12.33;;;2.97;;
51326;SDS011;37412;52.836;6.362;2024-01-15T09:17:26;10.83;;;2.93;;
51326;SDS011;37412;52.836;6.362;2024-01-15T09:20:13;8.90;;;1.90;;
51326;SDS011;37412;52.836;6.362;2024-01-15T09:23:00;11.05;;;2.10;;
51326;SDS011;37412;52.836;6.362;2024-01-15T09:25:45;9.93;;;2.20;;
51326;SDS011;37412;52.836;6.362;2024-01-15T09:28:33;11.70;;;2.20;;
51326;SDS011;37412;52.836;6.362;2024-01-15T09:31:19;9.85;;;2.08;;
51326;SDS011;37412;52.836;6.362;2024-01-15T09:34:05;12.35;;;2.53;;
51326;SDS011;37412;52.836;6.362;2024-01-15T09:36:51;10.52;;;2.28;;
51326;SDS011;37412;52.836;6.362;2024-01-15T09:39:37;10.00;;;2.20;;
51326;SDS011;37412;52.836;6.362;2024-01-15T09:42:24;10.52;;;2.75;;
51326;SDS011;37412;52.836;6.362;2024-01-15T09:45:10;10.38;;;2.30;;
51326;SDS011;37412;52.836;6.362;2024-01-15T09:47:57;12.85;;;2.10;;
51326;SDS011;37412;52.836;6.362;2024-01-15T09:50:43;12.40;;;2.20;;
51326;SDS011;37412;52.836;6.362;2024-01-15T09:53:29;10.73;;;2.20;;
51326;SDS011;37412;52.836;6.362;2024-01-15T09:56:16;12.55;;;2.33;;
51326;SDS011;37412;52.836;6.362;2024-01-15T09:59:02;9.20;;;2.05;;
51326;SDS011;37412;52.836;6.362;2024-01-15T10:01:50;9.15;;;1.70;;
51326;SDS011;37412;52.836;6.362;2024-01-15T10:04:38;10.10;;;1.67;;
51326;SDS011;37412;52.836;6.362;2024-01-15T10:07:25;8.70;;;1.60;;
51326;SDS011;37412;52.836;6.362;2024-01-15T10:10:11;6.65;;;1.40;;
51326;SDS011;37412;52.836;6.362;2024-01-15T10:12:58;8.05;;;1.50;;
51326;SDS011;37412;52.836;6.362;2024-01-15T10:15:45;6.82;;;1.08;;
51326;SDS011;37412;52.836;6.362;2024-01-15T10:18:34;6.40;;;1.30;;
51326;SDS011;37412;52.836;6.362;2024-01-15T10:21:22;8.88;;;1.50;;
51326;SDS011;37412;52.836;6.362;2024-01-15T10:24:08;9.52;;;1.65;;
51326;SDS011;37412;52.836;6.362;2024-01-15T10:27:04;8.20;;;1.23;;
51326;SDS011;37412;52.836;6.362;2024-01-15T10:29:51;7.93;;;2.80;;
51326;SDS011;37412;52.836;6.362;2024-01-15T10:32:38;6.88;;;1.48;;
51326;SDS011;37412;52.836;6.362;2024-01-15T10:35:25;7.97;;;1.40;;
51326;SDS011;37412;52.836;6.362;2024-01-15T10:38:14;7.03;;;1.30;;
51326;SDS011;37412;52.836;6.362;2024-01-15T10:41:03;7.45;;;1.90;;
51326;SDS011;37412;52.836;6.362;2024-01-15T10:43:51;6.30;;;1.20;;
51326;SDS011;37412;52.836;6.362;2024-01-15T10:46:37;7.20;;;1.10;;
51326;SDS011;37412;52.836;6.362;2024-01-15T10:49:24;5.90;;;1.10;;
51326;SDS011;37412;52.836;6.362;2024-01-15T10:52:14;4.88;;;1.08;;
51326;SDS011;37412;52.836;6.362;2024-01-15T10:55:02;7.18;;;1.30;;
51326;SDS011;37412;52.836;6.362;2024-01-15T10:57:49;5.15;;;1.00;;
51326;SDS011;37412;52.836;6.362;2024-01-15T11:00:40;6.43;;;1.20;;
51326;SDS011;37412;52.836;6.362;2024-01-15T11:03:26;7.78;;;1.30;;
51326;SDS011;37412;52.836;6.362;2024-01-15T11:06:18;6.47;;;1.17;;
51326;SDS011;37412;52.836;6.362;2024-01-15T11:09:05;5.47;;;1.10;;
51326;SDS011;37412;52.836;6.362;2024-01-15T11:12:06;4.05;;;0.90;;
51326;SDS011;37412;52.836;6.362;2024-01-15T11:15:00;2.28;;;0.50;;
51326;SDS011;37412;52.836;6.362;2024-01-15T11:17:59;3.00;;;0.60;;
51326;SDS011;37412;52.836;6.362;2024-01-15T11:24:01;1.67;;;0.45;;
51326;SDS011;37412;52.836;6.362;2024-01-15T11:26:48;1.63;;;0.40;;
51326;SDS011;37412;52.836;6.362;2024-01-15T11:29:37;2.50;;;0.68;;
51326;SDS011;37412;52.836;6.362;2024-01-15T11:32:23;3.40;;;0.70;;
51326;SDS011;37412;52.836;6.362;2024-01-15T11:35:19;2.92;;;0.70;;
51326;SDS011;37412;52.836;6.362;2024-01-15T11:38:05;3.00;;;0.70;;
51326;SDS011;37412;52.836;6.362;2024-01-15T11:40:52;3.83;;;1.00;;
51326;SDS011;37412;52.836;6.362;2024-01-15T11:43:38;3.42;;;0.82;;
51326;SDS011;37412;52.836;6.362;2024-01-15T11:46:24;4.33;;;0.73;;
51326;SDS011;37412;52.836;6.362;2024-01-15T11:49:19;5.80;;;1.20;;
51326;SDS011;37412;52.836;6.362;2024-01-15T11:52:35;6.38;;;1.08;;
51326;SDS011;37412;52.836;6.362;2024-01-15T11:55:25;5.25;;;0.80;;
51326;SDS011;37412;52.836;6.362;2024-01-15T11:58:16;4.10;;;1.00;;
51326;SDS011;37412;52.836;6.362;2024-01-15T12:01:02;4.15;;;1.02;;
51326;SDS011;37412;52.836;6.362;2024-01-15T12:03:48;5.18;;;1.15;;
51326;SDS011;37412;52.836;6.362;2024-01-15T12:06:34;7.33;;;1.40;;
51326;SDS011;37412;52.836;6.362;2024-01-15T12:09:20;6.65;;;1.27;;
51326;SDS011;37412;52.836;6.362;2024-01-15T12:12:08;5.50;;;1.27;;
51326;SDS011;37412;52.836;6.362;2024-01-15T12:15:00;7.15;;;1.35;;
51326;SDS011;37412;52.836;6.362;2024-01-15T12:17:46;4.70;;;1.30;;
51326;SDS011;37412;52.836;6.362;2024-01-15T12:20:32;5.95;;;1.20;;
51326;SDS011;37412;52.836;6.362;2024-01-15T12:23:19;6.13;;;1.33;;
51326;SDS011;37412;52.836;6.362;2024-01-15T12:26:05;4.10;;;0.90;;
51326;SDS011;37412;52.836;6.362;2024-01-15T12:28:51;5.68;;;1.17;;
51326;SDS011;37412;52.836;6.362;2024-01-15T12:31:37;5.60;;;0.98;;
51326;SDS011;37412;52.836;6.362;2024-01-15T12:34:23;6.63;;;1.20;;
51326;SDS011;37412;52.836;6.362;2024-01-15T12:37:09;6.60;;;1.10;;
51326;SDS011;37412;52.836;6.362;2024-01-15T12:39:56;5.43;;;1.17;;
51326;SDS011;37412;52.836;6.362;2024-01-15T12:42:44;6.38;;;1.20;;
51326;SDS011;37412;52.836;6.362;2024-01-15T12:45:30;5.60;;;1.00;;
51326;SDS011;37412;52.836;6.362;2024-01-15T12:48:16;5.68;;;0.90;;
51326;SDS011;37412;52.836;6.362;2024-01-15T12:51:05;5.97;;;1.30;;
51326;SDS011;37412;52.836;6.362;2024-01-15T12:53:52;5.43;;;1.10;;
51326;SDS011;37412;52.836;6.362;2024-01-15T12:56:38;5.65;;;1.33;;
51326;SDS011;37412;52.836;6.362;2024-01-15T12:59:24;5.60;;;0.90;;
51326;SDS011;37412;52.836;6.362;2024-01-15T13:02:11;5.97;;;1.25;;
51326;SDS011;37412;52.836;6.362;2024-01-15T13:04:58;7.47;;;1.40;;
51326;SDS011;37412;52.836;6.362;2024-01-15T13:07:44;5.53;;;1.20;;
51326;SDS011;37412;52.836;6.362;2024-01-15T13:10:31;5.63;;;1.10;;
51326;SDS011;37412;52.836;6.362;2024-01-15T13:13:17;6.13;;;1.50;;
51326;SDS011;37412;52.836;6.362;2024-01-15T13:16:03;5.53;;;1.13;;
51326;SDS011;37412;52.836;6.362;2024-01-15T13:18:49;5.93;;;1.20;;
51326;SDS011;37412;52.836;6.362;2024-01-15T13:21:35;5.63;;;1.52;;
51326;SDS011;37412;52.836;6.362;2024-01-15T13:24:21;4.82;;;1.10;;
51326;SDS011;37412;52.836;6.362;2024-01-15T13:27:08;7.43;;;1.50;;
51326;SDS011;37412;52.836;6.362;2024-01-15T13:29:54;6.55;;;1.42;;
51326;SDS011;37412;52.836;6.362;2024-01-15T13:32:39;7.45;;;1.50;;
51326;SDS011;37412;52.836;6.362;2024-01-15T13:35:28;5.93;;;1.20;;
51326;SDS011;37412;52.836;6.362;2024-01-15T13:38:15;6.37;;;1.33;;
51326;SDS011;37412;52.836;6.362;2024-01-15T13:41:01;6.35;;;1.40;;
51326;SDS011;37412;52.836;6.362;2024-01-15T13:43:49;6.65;;;1.40;;
51326;SDS011;37412;52.836;6.362;2024-01-15T13:46:36;5.85;;;1.45;;
51326;SDS011;37412;52.836;6.362;2024-01-15T13:49:24;6.60;;;1.48;;
51326;SDS011;37412;52.836;6.362;2024-01-15T13:52:10;8.00;;;1.60;;
51326;SDS011;37412;52.836;6.362;2024-01-15T13:54:56;9.95;;;1.88;;
51326;SDS011;37412;52.836;6.362;2024-01-15T13:57:42;7.65;;;1.98;;
51326;SDS011;37412;52.836;6.362;2024-01-15T14:00:28;9.23;;;1.70;;
51326;SDS011;37412;52.836;6.362;2024-01-15T14:03:15;8.77;;;2.30;;
51326;SDS011;37412;52.836;6.362;2024-01-15T14:06:01;9.05;;;2.00;;
51326;SDS011;37412;52.836;6.362;2024-01-15T14:08:54;9.18;;;1.95;;
51326;SDS011;37412;52.836;6.362;2024-01-15T14:11:40;13.48;;;2.55;;
51326;SDS011;37412;52.836;6.362;2024-01-15T14:14:26;10.10;;;2.40;;
51326;SDS011;37412;52.836;6.362;2024-01-15T14:17:12;11.80;;;2.38;;
51326;SDS011;37412;52.836;6.362;2024-01-15T14:20:01;10.38;;;1.90;;
51326;SDS011;37412;52.836;6.362;2024-01-15T14:22:50;9.90;;;1.88;;
51326;SDS011;37412;52.836;6.362;2024-01-15T14:25:36;11.15;;;1.90;;
51326;SDS011;37412;52.836;6.362;2024-01-15T14:28:22;8.35;;;1.60;;
51326;SDS011;37412;52.836;6.362;2024-01-15T14:31:08;6.93;;;1.40;;
51326;SDS011;37412;52.836;6.362;2024-01-15T14:33:54;8.05;;;1.60;;
51326;SDS011;37412;52.836;6.362;2024-01-15T14:36:40;6.55;;;1.38;;
51326;SDS011;37412;52.836;6.362;2024-01-15T14:39:26;9.65;;;2.17;;
51326;SDS011;37412;52.836;6.362;2024-01-15T14:42:12;10.90;;;2.10;;
51326;SDS011;37412;52.836;6.362;2024-01-15T14:44:58;10.77;;;2.20;;
51326;SDS011;37412;52.836;6.362;2024-01-15T14:47:44;11.02;;;2.20;;
51326;SDS011;37412;52.836;6.362;2024-01-15T14:50:30;9.70;;;2.08;;
51326;SDS011;37412;52.836;6.362;2024-01-15T14:53:16;9.32;;;1.98;;
51326;SDS011;37412;52.836;6.362;2024-01-15T14:56:02;10.38;;;2.20;;
51326;SDS011;37412;52.836;6.362;2024-01-15T14:58:48;11.70;;;2.08;;
51326;SDS011;37412;52.836;6.362;2024-01-15T15:01:35;8.98;;;1.60;;
51326;SDS011;37412;52.836;6.362;2024-01-15T15:04:20;8.25;;;1.55;;
51326;SDS011;37412;52.836;6.362;2024-01-15T15:07:07;8.30;;;1.67;;
51326;SDS011;37412;52.836;6.362;2024-01-15T15:09:53;6.73;;;1.40;;
51326;SDS011;37412;52.836;6.362;2024-01-15T15:12:39;7.93;;;1.37;;
51326;SDS011;37412;52.836;6.362;2024-01-15T15:15:25;6.70;;;1.30;;
51326;SDS011;37412;52.836;6.362;2024-01-15T15:18:11;8.48;;;1.33;;
51326;SDS011;37412;52.836;6.362;2024-01-15T15:20:57;6.67;;;1.23;;
51326;SDS011;37412;52.836;6.362;2024-01-15T15:23:43;8.40;;;1.63;;
51326;SDS011;37412;52.836;6.362;2024-01-15T15:26:29;6.78;;;1.40;;
51326;SDS011;37412;52.836;6.362;2024-01-15T15:29:15;6.63;;;1.10;;
51326;SDS011;37412;52.836;6.362;2024-01-15T15:32:02;6.90;;;1.20;;
51326;SDS011;37412;52.836;6.362;2024-01-15T15:34:48;5.97;;;1.15;;
51326;SDS011;37412;52.836;6.362;2024-01-15T15:37:34;7.25;;;1.50;;
51326;SDS011;37412;52.836;6.362;2024-01-15T15:40:20;6.13;;;1.35;;
51326;SDS011;37412;52.836;6.362;2024-01-15T15:43:08;6.30;;;1.40;;
51326;SDS011;37412;52.836;6.362;2024-01-15T15:45:54;9.25;;;1.50;;
51326;SDS011;37412;52.836;6.362;2024-01-15T15:48:40;11.20;;;1.60;;
51326;SDS011;37412;52.836;6.362;2024-01-15T15:51:26;8.20;;;1.80;;
51326;SDS011;37412;52.836;6.362;2024-01-15T15:54:12;9.25;;;1.83;;
51326;SDS011;37412;52.836;6.362;2024-01-15T15:56:58;7.60;;;1.60;;
51326;SDS011;37412;52.836;6.362;2024-01-15T15:59:44;6.72;;;1.70;;
51326;SDS011;37412;52.836;6.362;2024-01-15T16:02:30;6.30;;;1.35;;
51326;SDS011;37412;52.836;6.362;2024-01-15T16:05:16;10.00;;;1.52;;
51326;SDS011;37412;52.836;6.362;2024-01-15T16:08:02;6.63;;;1.25;;
51326;SDS011;37412;52.836;6.362;2024-01-15T16:10:48;4.82;;;0.80;;
51326;SDS011;37412;52.836;6.362;2024-01-15T16:13:36;3.42;;;0.70;;
51326;SDS011;37412;52.836;6.362;2024-01-15T16:16:22;3.30;;;0.80;;
51326;SDS011;37412;52.836;6.362;2024-01-15T16:19:09;5.22;;;0.80;;
51326;SDS011;37412;52.836;6.362;2024-01-15T16:21:55;3.63;;;0.80;;
51326;SDS011;37412;52.836;6.362;2024-01-15T16:24:41;3.33;;;1.00;;
51326;SDS011;37412;52.836;6.362;2024-01-15T16:27:27;6.40;;;0.90;;
51326;SDS011;37412;52.836;6.362;2024-01-15T16:30:13;5.00;;;1.00;;
51326;SDS011;37412;52.836;6.362;2024-01-15T16:32:59;4.38;;;1.00;;
51326;SDS011;37412;52.836;6.362;2024-01-15T16:35:45;4.72;;;0.93;;
51326;SDS011;37412;52.836;6.362;2024-01-15T16:38:31;6.03;;;1.20;;
51326;SDS011;37412;52.836;6.362;2024-01-15T16:41:17;5.43;;;1.30;;